createdAt,value
2019-03-11T00:00:39.591Z,7.90
2019-03-11T00:05:25.302Z,7.80
2019-03-11T00:10:11.355Z,7.70
2019-03-11T00:14:57.113Z,8.00
2019-03-11T00:19:43.430Z,7.70
2019-03-11T00:24:29.127Z,7.50
2019-03-11T00:29:15.085Z,7.40
2019-03-11T00:34:00.796Z,7.20
2019-03-11T00:38:46.676Z,7.50
2019-03-11T00:43:32.385Z,7.30
2019-03-11T00:48:18.101Z,7.00
2019-03-11T00:53:04.171Z,7.10
2019-03-11T00:57:49.922Z,7.20
2019-03-11T01:02:35.739Z,7.10
2019-03-11T01:07:21.472Z,6.80
2019-03-11T01:12:07.234Z,6.60
2019-03-11T01:16:53.046Z,6.10
2019-03-11T01:21:38.884Z,5.90
2019-03-11T01:26:24.588Z,6.00
2019-03-11T01:31:10.302Z,5.70
2019-03-11T01:35:56.097Z,5.40
2019-03-11T01:40:41.800Z,5.10
2019-03-11T01:45:27.547Z,5.00
2019-03-11T01:50:14.278Z,4.90
2019-03-11T01:55:00.344Z,5.20
2019-03-11T01:59:46.632Z,5.10
2019-03-11T02:04:32.357Z,5.30
2019-03-11T02:09:18.125Z,5.70
2019-03-11T02:14:03.987Z,5.60
2019-03-11T02:18:49.716Z,5.90
2019-03-11T02:23:35.456Z,6.30
2019-03-11T02:28:21.263Z,6.30
2019-03-11T02:33:07.206Z,6.30
2019-03-11T02:37:53.005Z,6.40
2019-03-11T02:42:38.833Z,6.40
2019-03-11T02:47:24.568Z,6.40
2019-03-11T02:52:10.270Z,6.60
2019-03-11T02:56:55.982Z,6.50
2019-03-11T03:02:06.395Z,6.50
2019-03-11T03:06:52.047Z,6.30
2019-03-11T03:11:37.816Z,6.20
2019-03-11T03:16:23.547Z,5.90
2019-03-11T03:21:09.290Z,5.80
2019-03-11T03:25:55.017Z,5.70
2019-03-11T03:30:40.900Z,6.10
2019-03-11T03:35:26.645Z,6.30
2019-03-11T03:40:12.669Z,6.10
2019-03-11T03:45:22.858Z,6.00
2019-03-11T03:50:08.891Z,5.80
2019-03-11T03:54:54.629Z,5.90
2019-03-11T03:59:41.202Z,5.60
2019-03-11T04:04:26.928Z,5.60
2019-03-11T04:09:12.844Z,6.00
2019-03-11T04:13:58.575Z,6.40
2019-03-11T04:18:57.484Z,6.70
2019-03-11T04:23:43.631Z,6.70
2019-03-11T04:28:29.493Z,6.50
2019-03-11T04:33:15.141Z,6.70
2019-03-11T04:38:00.904Z,7.00
2019-03-11T04:42:46.595Z,7.00
2019-03-11T04:47:32.278Z,6.90
2019-03-11T04:52:17.980Z,7.00
2019-03-11T04:57:03.861Z,7.00
2019-03-11T05:01:49.549Z,6.80
2019-03-11T05:06:35.350Z,6.50
2019-03-11T05:11:21.189Z,6.80
2019-03-11T05:16:06.994Z,7.20
2019-03-11T05:20:53.078Z,7.10
2019-03-11T05:25:38.779Z,7.30
2019-03-11T05:30:24.599Z,7.30
2019-03-11T05:35:10.592Z,7.30
2019-03-11T05:39:56.546Z,7.20
2019-03-11T05:44:42.356Z,7.10
2019-03-11T05:49:28.127Z,7.20
2019-03-11T05:54:13.891Z,7.10
2019-03-11T05:58:59.626Z,7.00
2019-03-11T06:03:45.517Z,7.10
2019-03-11T06:08:31.424Z,7.00
2019-03-11T06:13:17.256Z,6.90
2019-03-11T06:18:02.908Z,6.80
2019-03-11T06:22:48.626Z,6.90
2019-03-11T06:27:34.412Z,7.00
2019-03-11T06:32:20.101Z,6.90
2019-03-11T06:37:05.952Z,6.80
2019-03-11T06:41:51.701Z,6.90
2019-03-11T06:46:37.394Z,7.00
2019-03-11T06:51:23.200Z,7.10
2019-03-11T06:56:09.142Z,7.00
2019-03-11T07:00:54.903Z,7.10
2019-03-11T07:05:40.642Z,7.10
2019-03-11T07:10:26.581Z,6.90
2019-03-11T07:15:12.472Z,6.80
2019-03-11T07:19:58.240Z,6.70
2019-03-11T07:24:44.127Z,6.50
2019-03-11T07:29:29.964Z,6.30
2019-03-11T07:34:15.745Z,6.30
2019-03-11T07:39:01.441Z,6.50
2019-03-11T07:43:47.261Z,6.80
2019-03-11T07:48:32.943Z,7.00
2019-03-11T07:53:18.744Z,6.80
2019-03-11T07:58:04.758Z,6.60
2019-03-11T08:02:50.658Z,6.40
2019-03-11T08:07:36.579Z,6.20
2019-03-11T08:12:23.228Z,5.60
2019-03-11T08:17:09.313Z,5.20
2019-03-11T08:21:55.341Z,4.30
2019-03-11T08:26:41.158Z,4.10
2019-03-11T08:31:26.832Z,4.30
2019-03-11T08:36:12.576Z,4.40
2019-03-11T08:41:01.171Z,4.60
2019-03-11T08:45:47.123Z,4.70
2019-03-11T08:50:33.148Z,4.90
2019-03-11T08:55:18.974Z,5.20
2019-03-11T09:00:06.110Z,5.20
2019-03-11T09:04:51.963Z,5.50
2019-03-11T09:09:37.688Z,5.80
2019-03-11T09:14:23.432Z,6.10
2019-03-11T09:19:09.448Z,6.10
2019-03-11T09:23:55.285Z,6.20
2019-03-11T09:28:41.023Z,5.40
2019-03-11T09:33:26.845Z,3.00
2019-03-11T09:38:12.696Z,2.40
2019-03-11T09:42:58.589Z,3.00
2019-03-11T09:47:44.524Z,3.20
2019-03-11T09:52:30.737Z,3.40
2019-03-11T09:57:16.486Z,3.00
2019-03-11T10:02:02.268Z,2.90
2019-03-11T10:06:48.384Z,3.00
2019-03-11T10:11:34.207Z,3.30
2019-03-11T10:16:21.535Z,3.50
2019-03-11T10:21:07.562Z,3.90
2019-03-11T10:25:53.574Z,4.50
2019-03-11T10:30:39.582Z,5.70
2019-03-11T10:35:33.023Z,6.30
2019-03-11T10:40:15.302Z,6.40
2019-03-11T10:45:01.026Z,6.60
2019-03-11T10:49:46.898Z,7.30
2019-03-11T10:54:32.701Z,9.60
2019-03-11T10:59:18.560Z,8.80
2019-03-11T11:04:04.508Z,7.20
2019-03-11T11:08:50.273Z,6.90
2019-03-11T11:13:36.023Z,6.00
2019-03-11T11:18:22.063Z,5.40
2019-03-11T11:23:07.973Z,5.90
2019-03-11T11:27:53.883Z,5.90
2019-03-11T11:32:39.695Z,6.20
2019-03-11T11:37:25.395Z,5.90
2019-03-11T11:42:11.164Z,6.00
2019-03-11T11:46:56.904Z,5.00
2019-03-11T11:51:42.647Z,4.90
2019-03-11T11:56:28.459Z,4.90
2019-03-11T12:01:14.327Z,4.90
2019-03-11T12:06:00.148Z,5.10
2019-03-11T12:10:46.040Z,3.20
2019-03-11T12:15:31.909Z,2.70
2019-03-11T12:20:19.634Z,3.10
2019-03-11T12:25:05.992Z,3.00
2019-03-11T12:29:52.037Z,2.50
2019-03-11T12:34:38.159Z,2.30
2019-03-11T12:39:24.090Z,2.30
2019-03-11T12:44:10.072Z,2.40
2019-03-11T12:48:55.901Z,2.60
2019-03-11T12:53:41.910Z,2.80
2019-03-11T12:58:27.658Z,2.60
2019-03-11T13:03:13.515Z,2.70
2019-03-11T13:07:59.418Z,2.30
2019-03-11T13:12:45.597Z,2.40
2019-03-11T13:17:31.851Z,2.30
2019-03-11T13:22:17.874Z,2.40
2019-03-11T13:27:03.952Z,2.50
2019-03-11T13:31:49.870Z,2.50
2019-03-11T13:36:35.652Z,2.60
2019-03-11T13:41:21.531Z,2.70
2019-03-11T13:46:07.564Z,2.90
2019-03-11T13:50:53.338Z,3.10
2019-03-11T13:55:39.167Z,3.30
2019-03-11T14:00:25.142Z,3.50
2019-03-11T14:05:11.117Z,3.90
2019-03-11T14:09:57.026Z,4.40
2019-03-11T14:14:42.863Z,4.60
2019-03-11T14:19:28.783Z,5.00
2019-03-11T14:24:14.551Z,5.50
2019-03-11T14:29:00.646Z,6.00
2019-03-11T14:33:46.583Z,6.90
2019-03-11T14:38:32.348Z,7.90
2019-03-11T14:43:18.143Z,9.50
2019-03-11T14:48:04.257Z,13.10
2019-03-11T14:52:50.099Z,12.30
2019-03-11T14:57:35.835Z,13.50
2019-03-11T15:02:21.941Z,12.80
2019-03-11T15:07:07.794Z,10.40
2019-03-11T15:11:53.589Z,11.70
2019-03-11T15:16:39.573Z,13.00
2019-03-11T15:21:25.270Z,10.50
2019-03-11T15:26:11.241Z,12.80
2019-03-11T15:30:57.069Z,8.10
2019-03-11T15:35:42.859Z,5.70
2019-03-11T15:40:28.649Z,5.10
2019-03-11T15:45:15.369Z,4.30
2019-03-11T15:50:01.081Z,4.00
2019-03-11T15:54:46.860Z,3.50
2019-03-11T15:59:32.908Z,3.40
2019-03-11T16:04:18.876Z,3.40
2019-03-11T16:09:05.904Z,3.70
2019-03-11T16:13:51.680Z,3.90
2019-03-11T16:18:37.726Z,6.60
2019-03-11T16:23:23.728Z,6.60
2019-03-11T16:28:09.652Z,5.90
2019-03-11T16:33:00.595Z,5.00
2019-03-11T16:37:43.392Z,4.60
2019-03-11T16:42:29.597Z,4.40
2019-03-11T16:47:16.125Z,4.30
2019-03-11T16:52:02.289Z,4.50
2019-03-11T16:56:48.288Z,4.40
2019-03-11T17:01:34.284Z,4.30
2019-03-11T17:06:20.341Z,4.40
2019-03-11T17:11:06.519Z,4.50
2019-03-11T17:15:52.625Z,4.50
2019-03-11T17:20:38.543Z,4.20
2019-03-11T17:25:24.523Z,4.00
2019-03-11T17:30:13.078Z,3.90
2019-03-11T17:34:58.997Z,3.70
2019-03-11T17:39:45.053Z,3.60
2019-03-11T17:44:31.009Z,3.50
2019-03-11T17:49:17.012Z,3.50
2019-03-11T17:54:03.022Z,3.50
2019-03-11T17:58:48.983Z,3.40
2019-03-11T18:03:34.973Z,3.30
2019-03-11T18:08:21.196Z,3.40
2019-03-11T18:13:07.449Z,3.60
2019-03-11T18:17:53.363Z,3.50
2019-03-11T18:22:39.407Z,3.50
2019-03-11T18:27:25.308Z,3.40
2019-03-11T18:32:11.394Z,3.50
2019-03-11T18:36:57.222Z,3.50
2019-03-11T18:41:43.261Z,3.60
2019-03-11T18:46:29.673Z,3.50
2019-03-11T18:51:15.667Z,3.50
2019-03-11T18:56:01.654Z,3.60
2019-03-11T19:00:47.706Z,3.60
2019-03-11T19:05:33.956Z,3.70
2019-03-11T19:10:20.131Z,3.60
2019-03-11T19:15:06.818Z,3.50
2019-03-11T19:19:53.112Z,3.40
2019-03-11T19:24:39.571Z,3.30
2019-03-11T19:29:26.501Z,3.20
2019-03-11T19:34:12.815Z,3.10
2019-03-11T19:38:59.036Z,3.20
2019-03-11T19:43:45.393Z,3.30
2019-03-11T19:48:31.721Z,3.30
2019-03-11T19:53:37.354Z,3.10
2019-03-11T19:58:24.056Z,3.30
2019-03-11T20:03:22.278Z,3.30
2019-03-11T20:07:58.876Z,3.30
2019-03-11T20:12:45.158Z,3.30
2019-03-11T20:17:32.288Z,3.40
2019-03-11T20:22:18.785Z,3.40
2019-03-11T20:27:05.315Z,3.30
2019-03-11T20:31:51.242Z,3.30
2019-03-11T20:36:37.253Z,3.50
2019-03-11T20:41:23.210Z,3.60
2019-03-11T20:46:09.251Z,3.60
2019-03-11T20:50:55.415Z,3.60
2019-03-11T20:55:43.856Z,3.70
2019-03-11T21:00:30.036Z,3.80
2019-03-11T21:05:17.044Z,3.70
2019-03-11T21:10:02.995Z,3.90
2019-03-11T21:14:48.827Z,3.70
2019-03-11T21:19:35.156Z,3.70
2019-03-11T21:24:24.489Z,3.60
2019-03-11T21:29:10.401Z,3.50
2019-03-11T21:33:59.174Z,3.40
2019-03-11T21:38:45.314Z,3.30
2019-03-11T21:43:33.397Z,3.50
2019-03-11T21:48:19.618Z,3.40
2019-03-11T21:53:08.348Z,3.40
2019-03-11T21:57:54.767Z,3.30
2019-03-11T22:02:43.781Z,3.60
2019-03-11T22:07:29.998Z,3.50
2019-03-11T22:12:15.990Z,3.50
2019-03-11T22:17:02.090Z,3.60
2019-03-11T22:21:50.958Z,3.60
2019-03-11T22:26:38.062Z,3.60
2019-03-11T22:31:25.538Z,3.90
2019-03-11T22:36:11.624Z,3.90
2019-03-11T22:40:57.671Z,3.70
2019-03-11T22:45:43.542Z,3.60
2019-03-11T22:50:30.451Z,3.60
2019-03-11T22:55:17.049Z,3.50
2019-03-11T23:00:02.997Z,3.50
2019-03-11T23:04:48.782Z,3.40
2019-03-11T23:09:34.636Z,3.50
2019-03-11T23:14:20.468Z,3.50
2019-03-11T23:19:06.629Z,3.40
2019-03-11T23:23:52.557Z,3.30
2019-03-11T23:28:38.225Z,3.30
2019-03-11T23:33:24.078Z,3.20
2019-03-11T23:38:09.881Z,3.20
2019-03-11T23:42:55.559Z,3.20
2019-03-11T23:47:41.298Z,3.10
2019-03-11T23:52:27.028Z,3.00
2019-03-11T23:57:12.724Z,2.90
